createdAt,value
2019-02-23T00:02:28.607Z,48.59
2019-02-23T00:04:59.764Z,48.54
2019-02-23T00:07:31.063Z,48.56
2019-02-23T00:10:02.216Z,48.63
2019-02-23T00:12:35.194Z,48.66
2019-02-23T00:15:06.929Z,48.64
2019-02-23T00:17:38.252Z,48.64
2019-02-23T00:20:09.419Z,48.68
2019-02-23T00:22:40.710Z,48.70
2019-02-23T00:25:11.882Z,48.73
2019-02-23T00:27:43.124Z,48.77
2019-02-23T00:30:14.325Z,48.76
2019-02-23T00:32:45.593Z,48.77
2019-02-23T00:35:16.811Z,48.83
2019-02-23T00:37:47.993Z,48.82
2019-02-23T00:40:19.143Z,48.82
2019-02-23T00:42:50.364Z,48.83
2019-02-23T00:45:21.704Z,48.87
2019-02-23T00:47:52.957Z,48.86
2019-02-23T00:50:24.241Z,48.95
2019-02-23T00:52:55.372Z,48.99
2019-02-23T00:55:26.643Z,49.04
2019-02-23T00:57:58.000Z,49.10
2019-02-23T01:00:29.155Z,49.14
2019-02-23T01:03:00.342Z,49.19
2019-02-23T01:05:31.569Z,49.19
2019-02-23T01:08:02.906Z,49.24
2019-02-23T01:10:34.156Z,49.28
2019-02-23T01:13:05.453Z,49.31
2019-02-23T01:15:36.695Z,49.31
2019-02-23T01:18:07.921Z,49.33
2019-02-23T01:20:39.152Z,49.36
2019-02-23T01:23:10.454Z,49.36
2019-02-23T01:25:41.601Z,49.38
2019-02-23T01:28:12.916Z,49.43
2019-02-23T01:30:44.128Z,49.50
2019-02-23T01:33:15.381Z,49.51
2019-02-23T01:35:46.569Z,49.52
2019-02-23T01:38:17.812Z,49.53
2019-02-23T01:40:49.000Z,49.54
2019-02-23T01:43:20.255Z,49.60
2019-02-23T01:45:51.485Z,49.57
2019-02-23T01:48:22.648Z,49.61
2019-02-23T01:50:53.876Z,49.62
2019-02-23T01:53:25.025Z,49.63
2019-02-23T01:55:56.263Z,49.61
2019-02-23T01:58:27.461Z,49.64
2019-02-23T02:00:58.663Z,49.66
2019-02-23T02:03:29.810Z,49.67
2019-02-23T02:06:01.174Z,49.69
2019-02-23T02:08:32.780Z,49.69
2019-02-23T02:11:03.969Z,49.68
2019-02-23T02:13:35.212Z,49.74
2019-02-23T02:16:06.441Z,49.73
2019-02-23T02:18:37.677Z,49.76
2019-02-23T02:21:08.929Z,49.80
2019-02-23T02:23:40.102Z,49.83
2019-02-23T02:26:11.666Z,49.83
2019-02-23T02:28:42.848Z,49.86
2019-02-23T02:31:14.019Z,49.85
2019-02-23T02:34:11.545Z,49.89
2019-02-23T02:36:42.704Z,49.91
2019-02-23T02:39:15.079Z,49.88
2019-02-23T02:41:46.350Z,49.92
2019-02-23T02:44:17.571Z,49.98
2019-02-23T02:46:48.765Z,50.04
2019-02-23T02:49:19.970Z,50.06
2019-02-23T02:51:51.170Z,50.09
2019-02-23T02:54:22.326Z,50.09
2019-02-23T02:56:53.546Z,50.09
2019-02-23T02:59:25.819Z,50.11
2019-02-23T03:01:58.897Z,50.12
2019-02-23T03:04:30.001Z,50.16
2019-02-23T03:07:01.173Z,50.10
2019-02-23T03:09:32.400Z,50.12
2019-02-23T03:12:03.588Z,50.18
2019-02-23T03:14:34.821Z,50.25
2019-02-23T03:17:05.945Z,50.27
2019-02-23T03:19:37.115Z,50.29
2019-02-23T03:22:08.299Z,50.30
2019-02-23T03:24:39.610Z,50.32
2019-02-23T03:27:10.821Z,50.30
2019-02-23T03:29:42.060Z,50.30
2019-02-23T03:32:13.250Z,50.28
2019-02-23T03:34:44.477Z,50.31
2019-02-23T03:37:15.675Z,50.33
2019-02-23T03:39:46.777Z,50.36
2019-02-23T03:42:18.349Z,50.38
2019-02-23T03:44:49.512Z,50.38
2019-02-23T03:47:20.757Z,50.39
2019-02-23T03:49:52.017Z,50.39
2019-02-23T03:52:23.239Z,50.40
2019-02-23T03:54:54.434Z,50.42
2019-02-23T03:57:25.692Z,50.43
2019-02-23T03:59:56.937Z,50.43
2019-02-23T04:02:28.068Z,50.43
2019-02-23T04:04:59.316Z,50.43
2019-02-23T04:07:30.633Z,50.46
2019-02-23T04:10:01.817Z,50.49
2019-02-23T04:12:34.351Z,50.50
2019-02-23T04:15:05.574Z,50.49
2019-02-23T04:17:36.776Z,50.51
2019-02-23T04:20:07.899Z,50.56
2019-02-23T04:22:39.069Z,50.56
2019-02-23T04:25:10.200Z,50.58
2019-02-23T04:27:44.817Z,50.59
2019-02-23T04:30:15.964Z,50.60
2019-02-23T04:32:47.119Z,50.59
2019-02-23T04:35:18.361Z,50.60
2019-02-23T04:37:49.536Z,50.63
2019-02-23T04:40:20.788Z,50.63
2019-02-23T04:42:51.936Z,50.64
2019-02-23T04:45:23.223Z,50.65
2019-02-23T04:47:54.452Z,50.65
2019-02-23T04:50:25.643Z,50.66
2019-02-23T04:52:56.858Z,50.68
2019-02-23T04:55:28.130Z,50.69
2019-02-23T04:57:59.348Z,50.69
2019-02-23T05:00:30.537Z,50.70
2019-02-23T05:03:01.702Z,50.69
2019-02-23T05:05:33.150Z,50.70
2019-02-23T05:08:04.313Z,50.72
2019-02-23T05:10:35.483Z,50.72
2019-02-23T05:13:06.674Z,50.74
2019-02-23T05:15:37.990Z,50.76
2019-02-23T05:18:09.170Z,50.72
2019-02-23T05:20:40.377Z,50.74
2019-02-23T05:23:11.601Z,50.80
2019-02-23T05:25:42.801Z,50.80
2019-02-23T05:28:14.005Z,50.84
2019-02-23T05:30:45.247Z,50.84
2019-02-23T05:33:16.414Z,50.83
2019-02-23T05:35:49.738Z,50.85
2019-02-23T05:38:21.008Z,50.91
2019-02-23T05:40:52.190Z,50.90
2019-02-23T05:43:23.465Z,50.92
2019-02-23T05:45:54.765Z,50.96
2019-02-23T05:48:26.022Z,50.97
2019-02-23T05:50:57.425Z,51.00
2019-02-23T05:53:28.642Z,51.03
2019-02-23T05:55:59.943Z,51.07
2019-02-23T05:58:31.165Z,51.09
2019-02-23T06:01:02.390Z,51.11
2019-02-23T06:03:34.569Z,51.11
2019-02-23T06:06:05.845Z,51.14
2019-02-23T06:08:37.172Z,51.13
2019-02-23T06:11:08.446Z,51.11
2019-02-23T06:13:39.690Z,51.09
2019-02-23T06:16:10.894Z,51.08
2019-02-23T06:18:42.097Z,51.10
2019-02-23T06:21:13.389Z,51.12
2019-02-23T06:23:44.657Z,51.13
2019-02-23T06:26:15.828Z,51.12
2019-02-23T06:28:47.004Z,51.14
2019-02-23T06:31:18.270Z,51.14
2019-02-23T06:33:49.451Z,51.21
2019-02-23T06:36:20.719Z,51.22
2019-02-23T06:38:52.906Z,51.23
2019-02-23T06:41:25.312Z,51.29
2019-02-23T06:43:56.751Z,51.31
2019-02-23T06:46:27.983Z,51.33
2019-02-23T06:48:59.198Z,51.35
2019-02-23T06:51:30.469Z,51.38
2019-02-23T06:54:01.676Z,51.41
2019-02-23T06:56:32.900Z,51.44
2019-02-23T06:59:04.118Z,51.45
2019-02-23T07:01:35.325Z,51.46
2019-02-23T07:04:06.588Z,51.43
2019-02-23T07:06:37.872Z,51.48
2019-02-23T07:09:09.111Z,51.49
2019-02-23T07:11:40.347Z,51.46
2019-02-23T07:14:12.314Z,51.43
2019-02-23T07:16:43.807Z,51.46
2019-02-23T07:19:15.036Z,51.45
2019-02-23T07:21:46.235Z,51.45
2019-02-23T07:24:17.551Z,51.42
2019-02-23T07:26:48.792Z,51.38
2019-02-23T07:29:20.051Z,51.43
2019-02-23T07:31:51.830Z,51.42
2019-02-23T07:34:23.145Z,51.41
2019-02-23T07:36:54.513Z,51.39
2019-02-23T07:39:25.760Z,51.41
2019-02-23T07:41:56.940Z,51.38
2019-02-23T07:44:29.882Z,51.36
2019-02-23T07:47:01.696Z,51.36
2019-02-23T07:49:34.858Z,51.33
2019-02-23T07:52:06.849Z,51.31
2019-02-23T07:54:38.102Z,51.32
2019-02-23T07:57:10.250Z,51.29
2019-02-23T07:59:42.623Z,51.30
2019-02-23T08:02:13.912Z,51.34
2019-02-23T08:04:45.220Z,51.34
2019-02-23T08:07:16.420Z,51.29
2019-02-23T08:09:47.606Z,51.26
2019-02-23T08:12:18.945Z,51.25
2019-02-23T08:14:50.127Z,51.25
2019-02-23T08:17:21.309Z,51.17
2019-02-23T08:19:52.947Z,51.21
2019-02-23T08:22:24.141Z,51.20
2019-02-23T08:24:55.380Z,51.20
2019-02-23T08:27:26.655Z,51.19
2019-02-23T08:29:57.878Z,51.15
2019-02-23T08:32:29.071Z,51.15
2019-02-23T08:35:00.422Z,51.12
2019-02-23T08:37:31.617Z,51.12
2019-02-23T08:40:03.991Z,51.06
2019-02-23T08:42:35.245Z,50.98
2019-02-23T08:45:07.273Z,50.89
2019-02-23T08:47:38.448Z,50.85
2019-02-23T08:50:11.100Z,50.82
2019-02-23T08:52:49.365Z,50.77
2019-02-23T08:55:15.250Z,50.53
2019-02-23T08:57:46.445Z,50.61
2019-02-23T09:00:17.708Z,50.65
2019-02-23T09:02:49.112Z,50.70
2019-02-23T09:05:20.247Z,51.37
2019-02-23T09:07:52.527Z,51.35
2019-02-23T09:10:24.631Z,50.96
2019-02-23T09:12:55.948Z,51.02
2019-02-23T09:15:27.143Z,50.82
2019-02-23T09:17:58.356Z,50.75
2019-02-23T09:20:29.799Z,50.71
2019-02-23T09:23:01.882Z,50.67
2019-02-23T09:25:33.423Z,50.64
2019-02-23T09:28:04.670Z,50.58
2019-02-23T09:30:35.874Z,50.52
2019-02-23T09:33:07.073Z,50.53
2019-02-23T09:35:38.230Z,50.44
2019-02-23T09:38:09.522Z,50.44
2019-02-23T09:40:41.616Z,50.34
2019-02-23T09:43:13.170Z,50.35
2019-02-23T09:45:44.357Z,50.08
2019-02-23T09:48:15.659Z,50.30
2019-02-23T09:50:46.959Z,50.28
2019-02-23T09:53:18.319Z,50.21
2019-02-23T09:55:49.554Z,50.04
2019-02-23T09:58:20.782Z,50.04
2019-02-23T10:00:52.091Z,50.04
2019-02-23T10:03:23.526Z,50.01
2019-02-23T10:05:54.773Z,49.99
2019-02-23T10:08:25.950Z,50.02
2019-02-23T10:10:57.706Z,49.86
2019-02-23T10:13:29.086Z,49.79
2019-02-23T10:16:00.577Z,49.85
2019-02-23T10:18:31.853Z,49.81
2019-02-23T10:21:03.025Z,49.81
2019-02-23T10:23:35.226Z,49.59
2019-02-23T10:26:06.421Z,49.50
2019-02-23T10:28:37.752Z,49.60
2019-02-23T10:31:09.042Z,49.51
2019-02-23T10:33:47.431Z,49.44
2019-02-23T10:36:13.263Z,49.14
2019-02-23T10:38:44.465Z,49.22
2019-02-23T10:41:16.214Z,48.90
2019-02-23T10:43:47.878Z,48.99
2019-02-23T10:46:19.205Z,48.99
2019-02-23T10:48:50.396Z,48.94
2019-02-23T10:51:21.587Z,48.89
2019-02-23T10:53:52.761Z,48.84
2019-02-23T10:56:24.015Z,48.98
2019-02-23T10:58:55.325Z,48.96
2019-02-23T11:01:26.915Z,48.94
2019-02-23T11:03:58.162Z,48.91
2019-02-23T11:06:29.341Z,48.83
2019-02-23T11:09:00.753Z,48.71
2019-02-23T11:11:34.394Z,48.61
2019-02-23T11:14:05.708Z,48.48
2019-02-23T11:16:36.910Z,48.04
2019-02-23T11:19:08.100Z,48.19
2019-02-23T11:21:39.282Z,47.98
2019-02-23T11:24:10.474Z,47.98
2019-02-23T11:26:41.680Z,47.91
2019-02-23T11:29:12.863Z,47.98
2019-02-23T11:31:44.089Z,47.90
2019-02-23T11:34:15.229Z,47.80
2019-02-23T11:36:46.442Z,47.62
2019-02-23T11:39:17.639Z,47.67
2019-02-23T11:41:48.864Z,47.45
2019-02-23T11:44:20.100Z,47.47
2019-02-23T11:47:00.394Z,47.31
2019-02-23T11:49:25.343Z,47.02
2019-02-23T11:51:56.540Z,46.98
2019-02-23T11:54:27.760Z,47.00
2019-02-23T11:56:58.977Z,46.88
2019-02-23T11:59:30.263Z,46.76
2019-02-23T12:02:01.466Z,46.71
2019-02-23T12:04:32.608Z,46.38
2019-02-23T12:07:03.806Z,46.17
2019-02-23T12:09:34.980Z,46.25
2019-02-23T12:12:06.152Z,45.98
2019-02-23T12:14:37.330Z,45.65
2019-02-23T12:17:08.561Z,45.69
2019-02-23T12:19:39.745Z,45.60
2019-02-23T12:22:12.544Z,45.65
2019-02-23T12:24:43.975Z,45.57
2019-02-23T12:27:15.180Z,45.37
2019-02-23T12:29:46.350Z,45.25
2019-02-23T12:32:17.682Z,45.04
2019-02-23T12:34:49.047Z,44.96
2019-02-23T12:37:20.222Z,45.02
2019-02-23T12:39:51.418Z,44.80
2019-02-23T12:42:22.606Z,44.59
2019-02-23T12:44:53.786Z,44.46
2019-02-23T12:47:24.952Z,44.66
2019-02-23T12:49:56.141Z,44.69
2019-02-23T12:52:27.312Z,44.60
2019-02-23T12:54:58.586Z,44.28
2019-02-23T12:57:29.766Z,44.28
2019-02-23T13:00:00.978Z,44.13
2019-02-23T13:02:33.955Z,44.02
2019-02-23T13:05:05.392Z,43.86
2019-02-23T13:07:36.544Z,44.02
2019-02-23T13:10:11.307Z,44.14
2019-02-23T13:13:03.357Z,44.30
2019-02-23T13:15:57.488Z,44.42
2019-02-23T13:18:50.806Z,44.37
2019-02-23T13:22:02.377Z,44.24
2019-02-23T13:24:55.837Z,44.02
2019-02-23T13:27:52.197Z,43.77
2019-02-23T13:30:52.303Z,43.16
2019-02-23T13:34:02.012Z,42.44
2019-02-23T13:37:05.884Z,41.93
2019-02-23T13:40:36.382Z,41.53
2019-02-23T13:43:43.543Z,41.00
2019-02-23T13:46:38.052Z,40.46
2019-02-23T13:49:48.761Z,40.21
2019-02-23T13:53:15.966Z,39.62
2019-02-23T13:56:14.536Z,39.71
2019-02-23T13:59:25.412Z,39.56
2019-02-23T14:02:59.085Z,39.61
2019-02-23T14:05:45.371Z,39.38
2019-02-23T14:08:51.288Z,39.37
2019-02-23T14:11:47.658Z,39.07
2019-02-23T14:14:43.160Z,38.82
2019-02-23T14:17:51.267Z,38.60
2019-02-23T14:20:42.793Z,38.11
2019-02-23T14:23:53.223Z,37.90
2019-02-23T14:26:38.922Z,37.74
2019-02-23T14:29:54.006Z,37.38
2019-02-23T14:33:09.552Z,36.96
2019-02-23T14:36:14.772Z,36.63
2019-02-23T14:39:48.205Z,36.27
2019-02-23T14:42:44.932Z,36.01
2019-02-23T14:45:46.947Z,35.79
2019-02-23T14:48:41.286Z,35.61
2019-02-23T14:52:15.294Z,35.08
2019-02-23T14:55:17.141Z,34.92
2019-02-23T14:58:28.811Z,34.89
2019-02-23T15:01:32.197Z,34.66
2019-02-23T15:04:49.899Z,34.59
2019-02-23T15:08:16.708Z,34.49
2019-02-23T15:11:35.336Z,34.47
2019-02-23T15:14:44.673Z,34.50
2019-02-23T15:17:51.445Z,34.44
2019-02-23T15:21:16.657Z,34.53
2019-02-23T15:24:07.976Z,34.44
2019-02-23T15:27:17.234Z,34.71
2019-02-23T15:30:18.781Z,34.84
2019-02-23T15:33:33.877Z,34.87
2019-02-23T15:36:45.422Z,34.88
2019-02-23T15:40:05.524Z,35.03
2019-02-23T15:42:55.136Z,35.17
2019-02-23T15:45:59.338Z,35.34
2019-02-23T15:48:59.889Z,35.35
2019-02-23T15:51:31.534Z,35.49
2019-02-23T15:54:02.906Z,35.58
2019-02-23T15:56:34.126Z,35.69
2019-02-23T15:59:06.119Z,35.75
2019-02-23T16:01:38.140Z,35.82
2019-02-23T16:04:09.415Z,35.84
2019-02-23T16:06:40.854Z,35.92
2019-02-23T16:09:12.134Z,36.02
2019-02-23T16:11:45.239Z,36.11
2019-02-23T16:14:16.385Z,36.23
2019-02-23T16:16:47.951Z,36.25
2019-02-23T16:19:21.142Z,36.29
2019-02-23T16:21:53.049Z,36.42
2019-02-23T16:24:24.673Z,36.52
2019-02-23T16:26:56.188Z,36.63
2019-02-23T16:29:27.576Z,36.67
2019-02-23T16:31:58.788Z,36.67
2019-02-23T16:34:30.019Z,36.80
2019-02-23T16:37:01.178Z,36.97
2019-02-23T16:39:33.368Z,37.10
2019-02-23T16:42:04.625Z,37.23
2019-02-23T16:44:35.936Z,37.28
2019-02-23T16:47:07.186Z,37.40
2019-02-23T16:49:38.574Z,37.52
2019-02-23T16:52:09.850Z,37.54
2019-02-23T16:54:41.103Z,37.64
2019-02-23T16:57:12.348Z,37.80
2019-02-23T16:59:44.663Z,37.97
2019-02-23T17:02:15.842Z,38.05
2019-02-23T17:04:53.605Z,38.16
2019-02-23T17:07:20.047Z,38.23
2019-02-23T17:09:51.228Z,38.36
2019-02-23T17:12:22.496Z,38.47
2019-02-23T17:14:54.020Z,38.50
2019-02-23T17:17:25.211Z,38.65
2019-02-23T17:19:56.644Z,38.75
2019-02-23T17:22:28.118Z,38.90
2019-02-23T17:24:59.329Z,39.01
2019-02-23T17:27:36.857Z,39.13
2019-02-23T17:30:04.626Z,39.24
2019-02-23T17:32:35.935Z,39.33
2019-02-23T17:35:07.222Z,39.44
2019-02-23T17:37:38.462Z,39.55
2019-02-23T17:40:09.910Z,39.60
2019-02-23T17:42:41.130Z,39.68
2019-02-23T17:45:13.356Z,39.78
2019-02-23T17:47:44.653Z,39.88
2019-02-23T17:50:15.849Z,39.97
2019-02-23T17:52:47.051Z,40.07
2019-02-23T17:55:18.325Z,40.17
2019-02-23T17:57:49.612Z,40.28
2019-02-23T18:00:23.626Z,40.37
2019-02-23T18:02:55.076Z,40.50
2019-02-23T18:05:26.235Z,40.58
2019-02-23T18:07:57.580Z,40.66
2019-02-23T18:10:28.733Z,40.79
2019-02-23T18:13:00.026Z,40.95
2019-02-23T18:15:31.267Z,41.02
2019-02-23T18:18:02.617Z,41.13
2019-02-23T18:20:34.049Z,41.21
2019-02-23T18:23:05.536Z,41.32
2019-02-23T18:25:36.914Z,41.40
2019-02-23T18:28:08.367Z,41.46
2019-02-23T18:30:39.550Z,41.56
2019-02-23T18:33:10.917Z,41.60
2019-02-23T18:35:42.229Z,41.63
2019-02-23T18:38:13.435Z,41.71
2019-02-23T18:40:44.813Z,41.79
2019-02-23T18:43:16.159Z,41.86
2019-02-23T18:45:47.786Z,41.93
2019-02-23T18:48:19.367Z,42.01
2019-02-23T18:50:50.720Z,42.03
2019-02-23T18:53:22.031Z,42.07
2019-02-23T18:55:53.427Z,42.15
2019-02-23T18:58:24.659Z,42.22
2019-02-23T19:00:55.898Z,42.30
2019-02-23T19:03:27.156Z,42.37
2019-02-23T19:05:58.412Z,42.42
2019-02-23T19:08:29.733Z,42.50
2019-02-23T19:11:01.031Z,42.54
2019-02-23T19:13:33.296Z,42.60
2019-02-23T19:16:05.653Z,42.63
2019-02-23T19:18:36.918Z,42.65
2019-02-23T19:21:08.146Z,42.71
2019-02-23T19:23:39.350Z,42.76
2019-02-23T19:26:10.720Z,42.85
2019-02-23T19:28:43.361Z,42.92
2019-02-23T19:31:14.901Z,42.96
2019-02-23T19:33:47.743Z,42.97
2019-02-23T19:36:20.222Z,43.07
2019-02-23T19:38:51.454Z,43.08
2019-02-23T19:41:22.725Z,43.13
2019-02-23T19:43:54.095Z,43.16
2019-02-23T19:46:25.596Z,43.19
2019-02-23T19:48:56.789Z,43.24
2019-02-23T19:51:27.985Z,43.28
2019-02-23T19:53:59.174Z,43.32
2019-02-23T19:56:31.831Z,43.35
2019-02-23T19:59:03.314Z,43.38
2019-02-23T20:01:35.685Z,43.42
2019-02-23T20:04:06.965Z,43.47
2019-02-23T20:06:38.232Z,43.52
2019-02-23T20:09:09.409Z,43.58
2019-02-23T20:11:42.789Z,43.65
2019-02-23T20:14:14.180Z,43.72
2019-02-23T20:16:45.370Z,43.94
2019-02-23T20:19:16.680Z,43.94
2019-02-23T20:21:47.921Z,43.87
2019-02-23T20:24:19.172Z,43.94
2019-02-23T20:26:55.638Z,43.99
2019-02-23T20:29:24.509Z,44.04
2019-02-23T20:31:55.799Z,44.29
2019-02-23T20:34:27.090Z,44.29
2019-02-23T20:36:58.410Z,44.22
2019-02-23T20:39:29.673Z,44.28
2019-02-23T20:42:00.856Z,44.34
2019-02-23T20:44:32.299Z,44.41
2019-02-23T20:47:03.431Z,44.46
2019-02-23T20:49:35.756Z,44.50
2019-02-23T20:52:08.099Z,44.56
2019-02-23T20:54:39.518Z,44.62
2019-02-23T20:57:14.048Z,44.66
2019-02-23T20:59:43.615Z,44.70
2019-02-23T21:02:14.832Z,44.73
2019-02-23T21:04:46.025Z,44.78
2019-02-23T21:07:17.248Z,44.82
2019-02-23T21:09:48.432Z,44.84
2019-02-23T21:12:21.400Z,44.87
2019-02-23T21:14:53.278Z,44.91
2019-02-23T21:17:24.470Z,44.93
2019-02-23T21:19:55.738Z,44.98
2019-02-23T21:22:26.931Z,45.00
2019-02-23T21:24:58.207Z,45.05
2019-02-23T21:27:29.672Z,45.07
2019-02-23T21:30:01.068Z,45.08
2019-02-23T21:32:32.554Z,45.08
2019-02-23T21:35:04.034Z,45.17
2019-02-23T21:37:36.855Z,45.17
2019-02-23T21:40:08.236Z,45.26
2019-02-23T21:42:40.751Z,45.29
2019-02-23T21:45:12.065Z,45.32
2019-02-23T21:47:43.462Z,45.38
2019-02-23T21:50:14.700Z,45.44
2019-02-23T21:52:47.441Z,45.40
2019-02-23T21:55:19.005Z,45.40
2019-02-23T21:57:50.388Z,45.59
2019-02-23T22:00:21.591Z,45.61
2019-02-23T22:02:53.738Z,45.66
2019-02-23T22:05:25.704Z,45.66
2019-02-23T22:07:58.006Z,45.80
2019-02-23T22:10:30.423Z,45.80
2019-02-23T22:13:04.090Z,45.73
2019-02-23T22:15:35.525Z,45.72
2019-02-23T22:18:06.659Z,45.73
2019-02-23T22:20:37.803Z,45.74
2019-02-23T22:23:09.107Z,45.75
2019-02-23T22:25:40.284Z,45.76
2019-02-23T22:28:11.453Z,45.77
2019-02-23T22:30:42.635Z,45.82
2019-02-23T22:33:14.253Z,45.87
2019-02-23T22:35:45.507Z,45.92
2019-02-23T22:38:16.785Z,45.96
2019-02-23T22:40:48.108Z,46.01
2019-02-23T22:43:19.345Z,46.05
2019-02-23T22:45:53.163Z,46.07
2019-02-23T22:48:25.479Z,46.09
2019-02-23T22:50:56.703Z,46.10
2019-02-23T22:53:27.999Z,46.14
2019-02-23T22:55:59.274Z,46.19
2019-02-23T22:58:30.509Z,46.23
2019-02-23T23:01:02.884Z,46.26
2019-02-23T23:03:36.073Z,46.31
2019-02-23T23:06:07.376Z,46.36
2019-02-23T23:08:38.643Z,46.34
2019-02-23T23:11:10.043Z,46.51
2019-02-23T23:13:41.325Z,46.51
2019-02-23T23:16:12.625Z,46.34
2019-02-23T23:18:43.902Z,46.46
2019-02-23T23:21:15.223Z,46.46
2019-02-23T23:23:46.463Z,46.34
2019-02-23T23:26:17.778Z,46.34
2019-02-23T23:28:49.044Z,46.36
2019-02-23T23:31:20.225Z,46.38
2019-02-23T23:33:51.554Z,46.40
2019-02-23T23:36:22.714Z,46.44
2019-02-23T23:38:53.899Z,46.42
2019-02-23T23:41:25.190Z,46.40
2019-02-23T23:43:56.303Z,46.44
2019-02-23T23:46:27.528Z,46.52
2019-02-23T23:48:58.793Z,46.54
2019-02-23T23:51:30.008Z,46.58
2019-02-23T23:54:01.216Z,46.62
2019-02-23T23:56:32.491Z,46.65
2019-02-23T23:59:03.625Z,46.65
